Time;durP1;ratioP1;P1;durP2;ratioP2;P2;SDS_P1;SDS_P2;PMS_P1;PMS_P2;Temp;Humidity;BMP_temperature;BMP_pressure;BME280_temperature;BME280_humidity;BME280_pressure;Samples;Min_cycle;Max_cycle;Signal;HPM_P1;HPM_P2
2023/02/06 00:02:15;;;;;;;27.15;4.40;;;;;;;;;;5097318;28;20079;-70
2023/02/06 00:04:42;;;;;;;20.00;3.63;;;;;;;;;;5079737;28;20032;-69
2023/02/06 00:07:08;;;;;;;26.30;4.32;;;;;;;;;;5079200;28;21925;-70
2023/02/06 00:09:34;;;;;;;24.92;3.80;;;;;;;;;;5094526;28;20457;-69
2023/02/06 00:12:00;;;;;;;30.55;4.53;;;;;;;;;;5085078;28;20456;-69
2023/02/06 00:14:26;;;;;;;19.95;3.42;;;;;;;;;;5078891;28;20039;-69
2023/02/06 00:16:52;;;;;;;25.70;3.83;;;;;;;;;;5082815;28;20044;-70
2023/02/06 00:19:19;;;;;;;26.50;4.95;;;;;;;;;;5100598;28;20032;-70
2023/02/06 00:21:45;;;;;;;30.05;3.55;;;;;;;;;;5097277;28;20052;-70
2023/02/06 00:24:11;;;;;;;24.70;3.20;;;;;;;;;;5095690;28;20039;-70
2023/02/06 00:26:37;;;;;;;23.45;4.65;;;;;;;;;;5101995;28;20047;-70
2023/02/06 00:29:03;;;;;;;35.55;5.15;;;;;;;;;;5097835;28;20086;-70
2023/02/06 00:31:30;;;;;;;19.45;3.55;;;;;;;;;;5097008;28;20098;-70
2023/02/06 00:33:56;;;;;;;31.42;3.63;;;;;;;;;;5101376;28;20043;-70
2023/02/06 00:36:22;;;;;;;23.05;3.80;;;;;;;;;;5080423;28;20044;-70
2023/02/06 00:38:48;;;;;;;29.80;4.05;;;;;;;;;;5099662;28;20039;-70
2023/02/06 00:41:14;;;;;;;31.98;4.10;;;;;;;;;;5093748;28;20059;-69
2023/02/06 00:43:42;;;;;;;34.20;4.97;;;;;;;;;;5096392;28;20509;-69
2023/02/06 00:46:08;;;;;;;30.20;4.18;;;;;;;;;;5094587;28;20052;-70
2023/02/06 00:48:34;;;;;;;28.45;4.82;;;;;;;;;;5082718;28;20732;-70
2023/02/06 00:51:00;;;;;;;35.33;5.07;;;;;;;;;;5082631;28;20051;-70
2023/02/06 00:53:27;;;;;;;38.83;5.70;;;;;;;;;;5074735;28;20127;-69
2023/02/06 00:55:53;;;;;;;33.95;4.05;;;;;;;;;;5076298;28;20105;-69
2023/02/06 00:58:19;;;;;;;29.48;3.85;;;;;;;;;;5085193;28;20047;-70
2023/02/06 01:00:45;;;;;;;27.70;3.80;;;;;;;;;;5060516;28;20073;-70
2023/02/06 01:03:12;;;;;;;38.33;5.07;;;;;;;;;;5081933;28;20047;-70
2023/02/06 01:05:38;;;;;;;40.05;4.68;;;;;;;;;;5097086;28;20487;-70
2023/02/06 01:08:04;;;;;;;30.08;4.28;;;;;;;;;;5099808;28;20376;-70
2023/02/06 01:10:30;;;;;;;31.00;4.43;;;;;;;;;;5076346;28;20040;-70
2023/02/06 01:12:56;;;;;;;31.00;3.83;;;;;;;;;;5100006;28;20036;-69
2023/02/06 01:15:22;;;;;;;37.83;6.72;;;;;;;;;;5093875;28;20136;-70
2023/02/06 01:17:48;;;;;;;32.22;4.00;;;;;;;;;;5096717;28;20062;-70
2023/02/06 01:20:15;;;;;;;20.85;3.47;;;;;;;;;;5081920;28;20044;-69
2023/02/06 01:22:41;;;;;;;24.85;4.70;;;;;;;;;;5083781;28;20173;-70
2023/02/06 01:25:08;;;;;;;26.08;3.83;;;;;;;;;;5075670;28;20090;-70
2023/02/06 01:27:36;;;;;;;33.90;3.58;;;;;;;;;;5079515;28;20042;-70
2023/02/06 01:30:04;;;;;;;32.42;4.65;;;;;;;;;;5103609;28;20031;-70
2023/02/06 01:32:30;;;;;;;30.30;5.20;;;;;;;;;;5075990;28;20518;-69
2023/02/06 01:34:56;;;;;;;26.45;4.60;;;;;;;;;;5098922;28;20093;-69
2023/02/06 01:37:22;;;;;;;19.10;2.97;;;;;;;;;;5095185;28;20066;-69
2023/02/06 01:39:48;;;;;;;21.83;2.90;;;;;;;;;;5097139;28;20034;-70
2023/02/06 01:42:14;;;;;;;21.52;3.08;;;;;;;;;;5097143;28;20102;-70
2023/02/06 01:44:41;;;;;;;25.58;3.92;;;;;;;;;;5094971;28;20070;-71
2023/02/06 01:47:09;;;;;;;24.52;3.20;;;;;;;;;;5092354;28;20052;-69
2023/02/06 01:49:37;;;;;;;23.38;2.90;;;;;;;;;;5096285;28;20491;-69
2023/02/06 01:52:14;;;;;;;19.17;2.88;;;;;;;;;;5075316;28;20122;-70
2023/02/06 01:54:42;;;;;;;25.38;3.28;;;;;;;;;;5092028;28;20043;-70
2023/02/06 01:57:10;;;;;;;20.70;3.00;;;;;;;;;;5099145;28;20032;-70
2023/02/06 01:59:37;;;;;;;18.73;3.15;;;;;;;;;;5078799;28;20783;-70
2023/02/06 02:02:03;;;;;;;16.40;2.85;;;;;;;;;;5079678;28;20113;-70
2023/02/06 02:04:31;;;;;;;18.98;3.45;;;;;;;;;;5094208;28;20036;-70
2023/02/06 02:07:01;;;;;;;17.60;2.88;;;;;;;;;;5079558;28;20093;-70
2023/02/06 02:09:28;;;;;;;12.63;2.42;;;;;;;;;;5097101;28;20542;-70
2023/02/06 02:11:54;;;;;;;32.10;3.20;;;;;;;;;;5077371;28;20140;-70
2023/02/06 02:14:20;;;;;;;12.10;2.35;;;;;;;;;;5099252;28;20038;-70
2023/02/06 02:16:51;;;;;;;16.35;3.08;;;;;;;;;;5091944;28;20047;-71
2023/02/06 02:19:21;;;;;;;23.92;3.05;;;;;;;;;;5092306;28;20487;-71
2023/02/06 02:21:50;;;;;;;15.45;2.88;;;;;;;;;;5093585;28;20047;-70
2023/02/06 02:24:22;;;;;;;21.13;2.83;;;;;;;;;;5093469;28;20387;-70
2023/02/06 02:26:48;;;;;;;24.17;3.00;;;;;;;;;;5077043;28;20056;-70
2023/02/06 02:29:18;;;;;;;21.73;2.50;;;;;;;;;;5092211;28;20050;-70
2023/02/06 02:31:46;;;;;;;24.77;2.92;;;;;;;;;;5073655;28;20055;-70
2023/02/06 02:34:20;;;;;;;15.27;2.50;;;;;;;;;;5097453;28;20051;-71
2023/02/06 02:36:51;;;;;;;24.33;2.88;;;;;;;;;;5097118;28;20188;-70
2023/02/06 02:39:17;;;;;;;21.95;3.45;;;;;;;;;;5097468;28;20541;-70
2023/02/06 02:41:45;;;;;;;31.88;4.32;;;;;;;;;;5097419;28;20174;-70
2023/02/06 02:44:15;;;;;;;26.00;3.08;;;;;;;;;;5080474;28;20479;-70
2023/02/06 02:46:43;;;;;;;25.00;3.55;;;;;;;;;;5098449;28;20043;-70
2023/02/06 02:49:17;;;;;;;31.02;3.83;;;;;;;;;;5096397;28;20039;-70
2023/02/06 02:51:43;;;;;;;35.35;4.43;;;;;;;;;;5098891;28;20040;-70
2023/02/06 02:54:10;;;;;;;27.52;2.75;;;;;;;;;;5092999;28;20127;-71
2023/02/06 02:56:36;;;;;;;18.70;2.95;;;;;;;;;;5074965;28;20039;-70
2023/02/06 02:59:06;;;;;;;24.70;3.22;;;;;;;;;;5094394;28;20047;-70
2023/02/06 03:01:35;;;;;;;23.40;4.55;;;;;;;;;;5077748;28;20055;-70
2023/02/06 03:04:04;;;;;;;21.10;2.70;;;;;;;;;;5096478;28;20051;-69
2023/02/06 03:06:40;;;;;;;19.25;3.00;;;;;;;;;;5093855;28;20036;-70
2023/02/06 03:09:24;;;;;;;23.58;3.63;;;;;;;;;;5096679;28;20080;-70
2023/02/06 03:11:57;;;;;;;25.90;4.05;;;;;;;;;;5094937;28;20051;-70
2023/02/06 03:14:28;;;;;;;23.42;2.55;;;;;;;;;;5094832;28;20038;-70
2023/02/06 03:16:57;;;;;;;31.52;3.78;;;;;;;;;;5095267;28;20040;-70
2023/02/06 03:19:29;;;;;;;19.05;3.10;;;;;;;;;;5097750;28;20510;-70
2023/02/06 03:21:55;;;;;;;31.17;3.95;;;;;;;;;;5094948;28;20050;-70
2023/02/06 03:24:24;;;;;;;24.40;3.92;;;;;;;;;;5096250;28;20136;-70
2023/02/06 03:26:54;;;;;;;22.52;3.38;;;;;;;;;;5092380;28;20070;-70
2023/02/06 03:29:20;;;;;;;24.90;3.83;;;;;;;;;;5096055;28;20531;-70
2023/02/06 03:31:51;;;;;;;31.25;3.80;;;;;;;;;;5095862;28;20197;-70
2023/02/06 03:34:20;;;;;;;22.67;2.53;;;;;;;;;;5094851;28;20048;-70
2023/02/06 03:36:46;;;;;;;28.00;3.58;;;;;;;;;;5097801;28;20382;-70
2023/02/06 03:39:12;;;;;;;22.58;2.33;;;;;;;;;;5078832;28;20566;-70
2023/02/06 03:41:39;;;;;;;20.33;2.65;;;;;;;;;;5099093;28;20062;-70
2023/02/06 03:44:07;;;;;;;19.30;2.72;;;;;;;;;;5093545;28;20145;-70
2023/02/06 03:46:33;;;;;;;26.35;3.58;;;;;;;;;;5093997;28;20048;-70
2023/02/06 03:49:02;;;;;;;21.95;3.58;;;;;;;;;;5099914;28;20036;-70
2023/02/06 03:51:30;;;;;;;17.20;2.67;;;;;;;;;;5078935;28;20044;-70
2023/02/06 03:53:58;;;;;;;24.15;3.15;;;;;;;;;;5082854;28;20375;-70
2023/02/06 03:56:29;;;;;;;18.35;2.40;;;;;;;;;;5100766;28;20508;-70
2023/02/06 03:58:55;;;;;;;17.30;2.60;;;;;;;;;;5101519;28;20039;-70
2023/02/06 04:01:22;;;;;;;16.70;2.72;;;;;;;;;;5082807;28;20047;-69
2023/02/06 04:03:49;;;;;;;14.75;2.58;;;;;;;;;;5101964;28;20050;-70
2023/02/06 04:06:15;;;;;;;19.75;2.78;;;;;;;;;;5079434;28;20104;-70
2023/02/06 04:08:41;;;;;;;20.40;2.53;;;;;;;;;;5102639;28;20115;-70
2023/02/06 04:11:07;;;;;;;17.83;2.65;;;;;;;;;;5101119;28;20052;-70
2023/02/06 04:13:34;;;;;;;25.52;2.90;;;;;;;;;;5103728;28;20062;-70
2023/02/06 04:16:00;;;;;;;22.90;2.75;;;;;;;;;;5086064;28;20168;-70
2023/02/06 04:18:26;;;;;;;17.88;2.58;;;;;;;;;;5104189;28;20390;-69
2023/02/06 04:20:53;;;;;;;15.25;3.50;;;;;;;;;;5084214;28;20072;-70
2023/02/06 04:23:19;;;;;;;21.80;2.70;;;;;;;;;;5103750;28;20113;-69
2023/02/06 04:25:46;;;;;;;16.27;3.22;;;;;;;;;;5081026;28;20052;-70
2023/02/06 04:28:12;;;;;;;12.15;2.70;;;;;;;;;;5102722;28;20122;-70
2023/02/06 04:30:38;;;;;;;20.52;2.70;;;;;;;;;;5097168;28;20420;-70
2023/02/06 04:33:04;;;;;;;14.70;2.30;;;;;;;;;;5096243;28;20131;-70
2023/02/06 04:35:31;;;;;;;12.35;2.65;;;;;;;;;;5097338;28;20094;-70
2023/02/06 04:37:57;;;;;;;18.40;2.47;;;;;;;;;;5059552;28;20067;-70
2023/02/06 04:40:23;;;;;;;17.17;2.95;;;;;;;;;;5101188;28;20610;-70
2023/02/06 04:42:49;;;;;;;21.13;3.08;;;;;;;;;;5103546;28;20383;-70
2023/02/06 04:45:15;;;;;;;17.45;2.40;;;;;;;;;;5100937;28;20542;-70
2023/02/06 04:47:41;;;;;;;15.40;2.25;;;;;;;;;;5100821;28;20075;-69
2023/02/06 04:50:09;;;;;;;16.83;2.95;;;;;;;;;;5078098;28;20055;-70
2023/02/06 04:52:35;;;;;;;23.13;3.67;;;;;;;;;;5076786;28;20049;-70
2023/02/06 04:55:01;;;;;;;14.23;2.88;;;;;;;;;;5100525;28;20098;-70
2023/02/06 04:57:27;;;;;;;9.77;2.20;;;;;;;;;;5085568;28;20052;-70
2023/02/06 04:59:54;;;;;;;23.15;3.55;;;;;;;;;;5101582;28;20068;-70
2023/02/06 05:02:20;;;;;;;16.70;2.60;;;;;;;;;;5083554;28;20065;-69
2023/02/06 05:04:46;;;;;;;13.60;2.22;;;;;;;;;;5061567;28;20047;-71
2023/02/06 05:07:12;;;;;;;27.25;5.05;;;;;;;;;;5100047;28;20522;-69
2023/02/06 05:09:38;;;;;;;15.60;2.53;;;;;;;;;;5100812;28;20449;-70
2023/02/06 05:12:04;;;;;;;17.75;3.08;;;;;;;;;;5102932;28;20039;-70
2023/02/06 05:14:30;;;;;;;24.50;3.67;;;;;;;;;;5100047;28;20044;-70
2023/02/06 05:16:57;;;;;;;23.30;3.33;;;;;;;;;;5097180;28;20530;-70
2023/02/06 05:19:23;;;;;;;11.55;1.70;;;;;;;;;;5101959;28;20498;-70
2023/02/06 05:21:49;;;;;;;13.82;2.35;;;;;;;;;;5099147;28;20044;-70
2023/02/06 05:24:15;;;;;;;19.50;2.95;;;;;;;;;;5102105;28;20054;-70
2023/02/06 05:26:41;;;;;;;26.73;3.00;;;;;;;;;;5097068;28;20051;-70
2023/02/06 05:29:08;;;;;;;27.90;2.72;;;;;;;;;;5095164;28;20058;-70
2023/02/06 05:31:35;;;;;;;24.98;3.10;;;;;;;;;;5101274;28;20044;-70
2023/02/06 05:34:01;;;;;;;16.17;2.42;;;;;;;;;;5099669;28;20075;-69
2023/02/06 05:36:28;;;;;;;12.32;2.05;;;;;;;;;;5096931;28;20039;-69
2023/02/06 05:38:54;;;;;;;21.60;4.03;;;;;;;;;;5099598;28;20190;-69
2023/02/06 05:41:20;;;;;;;19.77;3.08;;;;;;;;;;5078844;28;20036;-70
2023/02/06 05:43:46;;;;;;;21.77;2.90;;;;;;;;;;5079052;28;20044;-70
2023/02/06 05:46:13;;;;;;;23.10;2.85;;;;;;;;;;5084018;28;20736;-70
2023/02/06 05:48:39;;;;;;;26.98;2.75;;;;;;;;;;5077644;28;20199;-69
2023/02/06 05:51:05;;;;;;;32.70;2.78;;;;;;;;;;5082074;28;20089;-69
2023/02/06 05:53:32;;;;;;;34.65;4.15;;;;;;;;;;5078146;28;20040;-70
2023/02/06 05:55:58;;;;;;;21.30;3.30;;;;;;;;;;5082065;28;20371;-69
2023/02/06 05:58:24;;;;;;;27.00;3.28;;;;;;;;;;5080205;28;20060;-70
2023/02/06 06:00:50;;;;;;;23.80;4.45;;;;;;;;;;5077249;28;20071;-70
2023/02/06 06:03:16;;;;;;;17.60;2.50;;;;;;;;;;5076902;28;20045;-70
2023/02/06 06:05:42;;;;;;;18.95;2.53;;;;;;;;;;5077333;28;20036;-69
2023/02/06 06:08:09;;;;;;;20.52;2.65;;;;;;;;;;5077428;28;20504;-69
2023/02/06 06:10:35;;;;;;;20.25;3.08;;;;;;;;;;5079996;28;20400;-69
2023/02/06 06:13:01;;;;;;;20.98;4.00;;;;;;;;;;5082212;28;20056;-69
2023/02/06 06:15:27;;;;;;;25.52;4.47;;;;;;;;;;5075497;28;20044;-69
2023/02/06 06:17:54;;;;;;;16.42;3.85;;;;;;;;;;5076162;28;20120;-70
2023/02/06 06:20:20;;;;;;;24.80;3.67;;;;;;;;;;5079300;28;20048;-69
2023/02/06 06:22:46;;;;;;;18.52;2.97;;;;;;;;;;5075576;28;20043;-70
2023/02/06 06:25:12;;;;;;;15.93;3.25;;;;;;;;;;5057040;28;20110;-71
2023/02/06 06:27:38;;;;;;;19.30;3.53;;;;;;;;;;5077451;28;20075;-71
2023/02/06 06:30:05;;;;;;;17.73;3.55;;;;;;;;;;5078292;28;20419;-71
2023/02/06 06:32:31;;;;;;;25.80;4.07;;;;;;;;;;5079464;28;20139;-71
2023/02/06 06:34:57;;;;;;;32.63;4.70;;;;;;;;;;5078943;28;20036;-71
2023/02/06 06:37:23;;;;;;;24.90;3.92;;;;;;;;;;5078490;28;20051;-71
2023/02/06 06:39:49;;;;;;;25.63;3.63;;;;;;;;;;5083474;28;20108;-71
2023/02/06 06:42:15;;;;;;;20.30;3.30;;;;;;;;;;5084140;28;20070;-71
2023/02/06 06:44:42;;;;;;;21.48;3.97;;;;;;;;;;5097945;28;20043;-71
2023/02/06 06:47:09;;;;;;;24.85;3.47;;;;;;;;;;5078721;28;20063;-70
2023/02/06 06:49:35;;;;;;;26.40;4.40;;;;;;;;;;5099915;28;20682;-71
2023/02/06 06:52:02;;;;;;;27.13;3.90;;;;;;;;;;5099363;28;20121;-71
2023/02/06 06:54:28;;;;;;;20.35;3.40;;;;;;;;;;5097183;28;20042;-70
2023/02/06 06:56:54;;;;;;;25.45;3.90;;;;;;;;;;5097907;28;20036;-70
2023/02/06 06:59:20;;;;;;;26.25;3.50;;;;;;;;;;5100350;28;20032;-70
2023/02/06 07:01:47;;;;;;;26.25;3.08;;;;;;;;;;5078902;28;20051;-70
2023/02/06 07:04:14;;;;;;;18.80;3.78;;;;;;;;;;5099450;28;20069;-70
2023/02/06 07:06:40;;;;;;;17.15;3.58;;;;;;;;;;5102477;28;20071;-70
2023/02/06 07:09:06;;;;;;;29.35;3.80;;;;;;;;;;5100766;28;20055;-70
2023/02/06 07:11:32;;;;;;;29.65;4.53;;;;;;;;;;5098851;28;20040;-70
2023/02/06 07:13:58;;;;;;;20.23;3.40;;;;;;;;;;5100806;28;20040;-70
2023/02/06 07:16:25;;;;;;;25.73;3.65;;;;;;;;;;5094829;28;20110;-69
2023/02/06 07:18:51;;;;;;;20.80;3.45;;;;;;;;;;5096672;28;20088;-70
2023/02/06 07:21:18;;;;;;;32.17;3.55;;;;;;;;;;5080520;28;20039;-70
2023/02/06 07:23:45;;;;;;;19.73;3.17;;;;;;;;;;5082230;28;20078;-70
2023/02/06 07:26:11;;;;;;;21.23;3.03;;;;;;;;;;5094329;28;20517;-69
2023/02/06 07:28:37;;;;;;;29.45;4.43;;;;;;;;;;5075198;28;20044;-70
2023/02/06 07:31:04;;;;;;;34.60;4.45;;;;;;;;;;5083842;28;20047;-70
2023/02/06 07:33:31;;;;;;;27.00;5.10;;;;;;;;;;5082349;28;20915;-70
2023/02/06 07:35:58;;;;;;;24.90;5.55;;;;;;;;;;5104673;28;20035;-70
2023/02/06 07:38:24;;;;;;;29.27;4.50;;;;;;;;;;5085331;28;20039;-70
2023/02/06 07:40:50;;;;;;;24.67;3.50;;;;;;;;;;5081718;28;20155;-70
2023/02/06 07:43:17;;;;;;;15.40;2.83;;;;;;;;;;5083366;28;20538;-70
2023/02/06 07:45:43;;;;;;;15.23;3.33;;;;;;;;;;5083240;28;20144;-70
2023/02/06 07:48:09;;;;;;;18.67;3.28;;;;;;;;;;5087163;28;20136;-70
2023/02/06 07:50:35;;;;;;;23.45;4.50;;;;;;;;;;5081989;28;20086;-70
2023/02/06 07:53:02;;;;;;;21.67;3.72;;;;;;;;;;5074108;28;20048;-70
2023/02/06 07:55:28;;;;;;;24.33;4.03;;;;;;;;;;5075618;28;20044;-70
2023/02/06 07:57:54;;;;;;;26.45;4.80;;;;;;;;;;5074444;28;20036;-70
2023/02/06 08:00:21;;;;;;;28.85;5.18;;;;;;;;;;5080339;28;20415;-70
2023/02/06 08:02:47;;;;;;;33.35;5.15;;;;;;;;;;5082244;28;20072;-69
2023/02/06 08:05:13;;;;;;;33.40;5.35;;;;;;;;;;5080186;28;20051;-70
2023/02/06 08:07:39;;;;;;;36.95;5.72;;;;;;;;;;5083464;28;20039;-70
2023/02/06 08:10:06;;;;;;;38.83;5.88;;;;;;;;;;5083850;28;20437;-70
2023/02/06 08:12:32;;;;;;;41.10;6.40;;;;;;;;;;5079547;28;20412;-69
2023/02/06 08:14:58;;;;;;;36.40;7.10;;;;;;;;;;5077218;28;20036;-69
2023/02/06 08:17:24;;;;;;;33.10;6.90;;;;;;;;;;5078586;28;20124;-69
2023/02/06 08:19:50;;;;;;;56.67;7.90;;;;;;;;;;5081234;28;20039;-70
2023/02/06 08:22:16;;;;;;;48.22;6.30;;;;;;;;;;5076617;28;20063;-70
2023/02/06 08:24:43;;;;;;;36.55;7.53;;;;;;;;;;5078693;28;20039;-70
2023/02/06 08:27:09;;;;;;;51.83;7.28;;;;;;;;;;5077425;28;20509;-70
2023/02/06 08:29:41;;;;;;;49.58;7.90;;;;;;;;;;5080734;28;20044;-70
2023/02/06 08:32:07;;;;;;;54.78;7.65;;;;;;;;;;5080181;28;20052;-70
2023/02/06 08:34:33;;;;;;;52.22;8.07;;;;;;;;;;5083136;28;20396;-70
2023/02/06 08:36:59;;;;;;;50.45;7.35;;;;;;;;;;5081396;28;20109;-70
2023/02/06 08:39:26;;;;;;;49.05;8.45;;;;;;;;;;5083214;28;20036;-70
2023/02/06 08:41:52;;;;;;;46.45;7.88;;;;;;;;;;5100332;28;20188;-70
2023/02/06 08:44:18;;;;;;;50.22;7.68;;;;;;;;;;5095996;28;20447;-70
2023/02/06 08:46:45;;;;;;;51.75;7.90;;;;;;;;;;5078237;28;20527;-70
2023/02/06 08:49:13;;;;;;;52.45;8.45;;;;;;;;;;5082965;28;20085;-70
2023/02/06 08:51:39;;;;;;;44.10;7.20;;;;;;;;;;5084970;28;20044;-70
2023/02/06 08:54:07;;;;;;;44.35;8.70;;;;;;;;;;5080275;28;20093;-71
2023/02/06 08:56:35;;;;;;;48.63;7.57;;;;;;;;;;5080810;28;20038;-70
2023/02/06 08:59:01;;;;;;;37.38;6.70;;;;;;;;;;5085827;28;20089;-70
2023/02/06 09:01:28;;;;;;;43.35;6.90;;;;;;;;;;5099701;28;20039;-70
2023/02/06 09:03:55;;;;;;;42.50;6.38;;;;;;;;;;5096937;28;20043;-70
2023/02/06 09:06:22;;;;;;;43.05;6.72;;;;;;;;;;5081145;28;20407;-70
2023/02/06 09:08:48;;;;;;;46.15;6.90;;;;;;;;;;5100794;28;20399;-70
2023/02/06 09:11:16;;;;;;;43.15;7.10;;;;;;;;;;5083972;28;20485;-70
2023/02/06 09:13:43;;;;;;;59.88;6.20;;;;;;;;;;5104287;28;20120;-70
2023/02/06 09:16:10;;;;;;;51.92;6.57;;;;;;;;;;5099230;28;20047;-69
2023/02/06 09:18:37;;;;;;;51.10;6.00;;;;;;;;;;5103474;28;20040;-69
2023/02/06 09:21:09;;;;;;;52.83;9.68;;;;;;;;;;5084811;28;20053;-68
2023/02/06 09:23:36;;;;;;;52.47;7.40;;;;;;;;;;5100142;28;20055;-70
2023/02/06 09:26:02;;;;;;;38.53;7.05;;;;;;;;;;5105194;28;20044;-71
2023/02/06 09:28:28;;;;;;;49.97;7.68;;;;;;;;;;5095563;28;20040;-70
2023/02/06 09:30:54;;;;;;;40.40;6.18;;;;;;;;;;5088228;28;20472;-70
2023/02/06 09:33:21;;;;;;;35.00;6.07;;;;;;;;;;5099948;28;20087;-70
2023/02/06 09:35:47;;;;;;;51.13;7.10;;;;;;;;;;5081454;28;20039;-74
2023/02/06 09:38:13;;;;;;;42.15;8.18;;;;;;;;;;5086924;28;20096;-71
2023/02/06 09:40:39;;;;;;;33.33;7.13;;;;;;;;;;5094264;28;20060;-70
2023/02/06 09:43:06;;;;;;;60.38;7.32;;;;;;;;;;5096447;28;20131;-70
2023/02/06 09:45:32;;;;;;;40.83;6.40;;;;;;;;;;5090519;28;20754;-70
2023/02/06 09:48:05;;;;;;;43.17;6.15;;;;;;;;;;5075684;28;20127;-70
2023/02/06 09:50:45;;;;;;;45.38;7.38;;;;;;;;;;5088952;28;20127;-70
2023/02/06 09:53:14;;;;;;;48.00;6.47;;;;;;;;;;5087436;28;20136;-70
2023/02/06 09:55:41;;;;;;;47.65;7.30;;;;;;;;;;5095534;28;20032;-70
2023/02/06 09:58:35;;;;;;;48.85;7.05;;;;;;;;;;5094443;28;20056;-70
2023/02/06 10:01:20;;;;;;;35.30;6.28;;;;;;;;;;5095090;28;20047;-69
2023/02/06 10:03:55;;;;;;;44.13;6.35;;;;;;;;;;5099317;28;20039;-70
2023/02/06 10:06:23;;;;;;;32.03;6.03;;;;;;;;;;5074219;28;20110;-70
2023/02/06 10:08:59;;;;;;;35.45;5.55;;;;;;;;;;5075633;28;20040;-70
2023/02/06 10:11:34;;;;;;;45.00;7.68;;;;;;;;;;5089359;28;20377;-70
2023/02/06 10:14:03;;;;;;;37.08;5.78;;;;;;;;;;5078698;28;20067;-70
2023/02/06 10:16:33;;;;;;;34.53;6.03;;;;;;;;;;5093630;28;20043;-70
2023/02/06 10:19:03;;;;;;;35.10;5.97;;;;;;;;;;5073352;28;20148;-69
2023/02/06 10:21:36;;;;;;;41.10;5.95;;;;;;;;;;5091403;28;20036;-70
2023/02/06 10:24:13;;;;;;;33.50;6.53;;;;;;;;;;5102698;28;20035;-71
2023/02/06 10:26:40;;;;;;;35.08;5.93;;;;;;;;;;5093320;28;20108;-71
2023/02/06 10:29:10;;;;;;;37.30;6.35;;;;;;;;;;5102345;28;20151;-70
2023/02/06 10:31:49;;;;;;;35.22;4.72;;;;;;;;;;5080170;28;20036;-70
2023/02/06 10:34:21;;;;;;;35.83;5.10;;;;;;;;;;5085276;28;20160;-69
2023/02/06 10:36:59;;;;;;;23.67;4.90;;;;;;;;;;5078627;28;20082;-69
2023/02/06 10:39:38;;;;;;;33.05;5.68;;;;;;;;;;5097589;28;20039;-71
2023/02/06 10:42:05;;;;;;;32.58;4.10;;;;;;;;;;5078793;28;20495;-69
2023/02/06 10:44:31;;;;;;;27.35;4.25;;;;;;;;;;5072474;28;20036;-70
2023/02/06 10:46:57;;;;;;;27.83;4.35;;;;;;;;;;5097670;28;20043;-70
2023/02/06 10:49:36;;;;;;;28.63;4.10;;;;;;;;;;5102149;28;20051;-69
2023/02/06 10:52:11;;;;;;;31.60;5.30;;;;;;;;;;5100890;28;20043;-69
2023/02/06 10:54:39;;;;;;;29.60;4.63;;;;;;;;;;5095689;28;20139;-69
2023/02/06 10:57:12;;;;;;;31.70;3.65;;;;;;;;;;5094961;28;20042;-69
2023/02/06 10:59:39;;;;;;;32.10;4.93;;;;;;;;;;5103606;28;20043;-69
2023/02/06 11:02:17;;;;;;;26.35;4.97;;;;;;;;;;5100598;28;20362;-69
2023/02/06 11:04:47;;;;;;;31.52;3.78;;;;;;;;;;5099455;28;20050;-69
2023/02/06 11:07:17;;;;;;;27.33;4.35;;;;;;;;;;5103878;28;20133;-69
2023/02/06 11:09:43;;;;;;;28.45;4.88;;;;;;;;;;5095583;28;20046;-68
2023/02/06 11:12:17;;;;;;;25.45;4.10;;;;;;;;;;5075434;28;20648;-68
2023/02/06 11:14:43;;;;;;;23.38;3.92;;;;;;;;;;5103395;28;20036;-68
2023/02/06 11:17:10;;;;;;;21.10;4.05;;;;;;;;;;5099523;28;20044;-68
2023/02/06 11:19:39;;;;;;;26.65;4.07;;;;;;;;;;5080330;28;20118;-69
2023/02/06 11:22:06;;;;;;;20.35;3.97;;;;;;;;;;5099074;28;20116;-68
2023/02/06 11:24:33;;;;;;;23.73;3.70;;;;;;;;;;5097247;28;20127;-68
2023/02/06 11:27:01;;;;;;;26.58;3.92;;;;;;;;;;5098697;28;20044;-70
2023/02/06 11:29:30;;;;;;;35.70;4.38;;;;;;;;;;5100707;28;20126;-70
2023/02/06 11:32:04;;;;;;;28.55;4.32;;;;;;;;;;5104228;28;20047;-69
2023/02/06 11:34:32;;;;;;;20.00;3.10;;;;;;;;;;5101515;28;20032;-70
2023/02/06 11:37:00;;;;;;;27.15;3.60;;;;;;;;;;5079505;28;20052;-69
2023/02/06 11:39:29;;;;;;;24.55;4.00;;;;;;;;;;5101404;28;20050;-69
2023/02/06 11:41:57;;;;;;;27.52;5.40;;;;;;;;;;5095510;28;20101;-70
2023/02/06 11:44:25;;;;;;;24.23;3.75;;;;;;;;;;5093986;28;20043;-70
2023/02/06 11:46:51;;;;;;;13.73;2.97;;;;;;;;;;5102823;28;20178;-70
2023/02/06 11:49:27;;;;;;;14.82;2.95;;;;;;;;;;5098158;28;20078;-70
2023/02/06 11:51:58;;;;;;;20.20;3.47;;;;;;;;;;5073447;28;20040;-70
2023/02/06 11:54:27;;;;;;;15.57;3.47;;;;;;;;;;5095507;28;20040;-70
2023/02/06 11:57:02;;;;;;;23.95;4.38;;;;;;;;;;5091972;28;20044;-70
2023/02/06 11:59:28;;;;;;;18.27;3.33;;;;;;;;;;5098102;28;20043;-70
2023/02/06 12:01:56;;;;;;;18.02;3.60;;;;;;;;;;5080057;28;20069;-70
2023/02/06 12:04:34;;;;;;;21.92;3.35;;;;;;;;;;5096474;28;20118;-70
2023/02/06 12:07:04;;;;;;;22.02;4.03;;;;;;;;;;5100624;28;20122;-70
2023/02/06 12:09:30;;;;;;;14.20;2.90;;;;;;;;;;5095980;28;20039;-71
2023/02/06 12:11:59;;;;;;;20.52;4.13;;;;;;;;;;5097313;28;20149;-71
2023/02/06 12:14:32;;;;;;;17.40;3.63;;;;;;;;;;5100778;28;20084;-70
2023/02/06 12:16:59;;;;;;;19.75;3.72;;;;;;;;;;5103560;28;20052;-70
2023/02/06 12:19:30;;;;;;;16.77;3.60;;;;;;;;;;5105180;28;20547;-70
2023/02/06 12:22:01;;;;;;;17.42;3.35;;;;;;;;;;5100848;28;20058;-70
2023/02/06 12:24:31;;;;;;;19.88;3.92;;;;;;;;;;5101317;28;20043;-71
2023/02/06 12:27:00;;;;;;;19.23;3.50;;;;;;;;;;5100224;28;20094;-70
2023/02/06 12:29:30;;;;;;;19.23;3.75;;;;;;;;;;5099036;28;20040;-71
2023/02/06 12:32:06;;;;;;;31.00;4.25;;;;;;;;;;5082780;28;20044;-70
2023/02/06 12:34:48;;;;;;;18.13;4.10;;;;;;;;;;5099007;28;20051;-69
2023/02/06 12:37:20;;;;;;;17.73;3.55;;;;;;;;;;5102065;28;20070;-69
2023/02/06 12:39:47;;;;;;;13.82;2.88;;;;;;;;;;5101349;28;20101;-70
2023/02/06 12:42:22;;;;;;;17.83;3.67;;;;;;;;;;5076956;28;20491;-69
2023/02/06 12:44:52;;;;;;;22.23;3.63;;;;;;;;;;5095278;28;20043;-70
2023/02/06 12:47:23;;;;;;;15.68;2.80;;;;;;;;;;5095726;28;20075;-69
2023/02/06 12:49:50;;;;;;;17.05;3.35;;;;;;;;;;5096921;28;20058;-70
2023/02/06 12:52:19;;;;;;;24.75;4.47;;;;;;;;;;5093414;28;20036;-70
2023/02/06 12:54:47;;;;;;;17.25;3.55;;;;;;;;;;5092338;28;20040;-70
2023/02/06 12:57:16;;;;;;;15.15;3.45;;;;;;;;;;5094239;28;20036;-70
2023/02/06 12:59:52;;;;;;;17.92;2.92;;;;;;;;;;5094884;28;20028;-70
2023/02/06 13:02:23;;;;;;;15.70;3.28;;;;;;;;;;5075963;28;20039;-70
2023/02/06 13:04:49;;;;;;;18.02;3.67;;;;;;;;;;5093178;28;20035;-70
2023/02/06 13:07:18;;;;;;;19.02;3.72;;;;;;;;;;5099561;28;20043;-70
2023/02/06 13:09:51;;;;;;;17.13;3.95;;;;;;;;;;5093025;28;20044;-70
2023/02/06 13:12:17;;;;;;;20.08;3.22;;;;;;;;;;5093686;28;20036;-70
2023/02/06 13:14:48;;;;;;;15.80;3.22;;;;;;;;;;5075464;28;20525;-70
2023/02/06 13:17:21;;;;;;;12.95;3.25;;;;;;;;;;5095217;28;20054;-70
2023/02/06 13:19:49;;;;;;;16.25;3.17;;;;;;;;;;5099156;28;20085;-70
2023/02/06 13:22:17;;;;;;;19.20;2.83;;;;;;;;;;5093439;28;20067;-70
2023/02/06 13:24:45;;;;;;;21.13;3.92;;;;;;;;;;5093864;28;20067;-70
2023/02/06 13:27:14;;;;;;;14.02;2.83;;;;;;;;;;5080567;28;20044;-70
2023/02/06 13:29:43;;;;;;;25.02;3.58;;;;;;;;;;5098607;28;20525;-70
2023/02/06 13:32:10;;;;;;;24.70;4.32;;;;;;;;;;5090989;28;20043;-70
2023/02/06 13:34:38;;;;;;;19.75;3.28;;;;;;;;;;5095528;28;20198;-70
2023/02/06 13:37:23;;;;;;;14.75;3.25;;;;;;;;;;5077559;28;20055;-70
2023/02/06 13:40:09;;;;;;;14.20;2.83;;;;;;;;;;5097225;28;20434;-70
2023/02/06 13:42:40;;;;;;;12.57;2.60;;;;;;;;;;5092657;28;20740;-70
2023/02/06 13:45:14;;;;;;;18.08;3.65;;;;;;;;;;5092954;28;20060;-70
2023/02/06 13:47:41;;;;;;;19.40;3.72;;;;;;;;;;5097792;28;20107;-70
2023/02/06 13:50:24;;;;;;;15.02;2.92;;;;;;;;;;5102108;28;20036;-70
2023/02/06 13:52:51;;;;;;;15.15;3.03;;;;;;;;;;5095028;28;20131;-70
2023/02/06 13:55:18;;;;;;;17.35;3.10;;;;;;;;;;5099918;28;20046;-70
2023/02/06 13:57:57;;;;;;;15.02;3.13;;;;;;;;;;5097290;28;20040;-70
2023/02/06 14:00:24;;;;;;;16.20;3.00;;;;;;;;;;5079410;28;20048;-70
2023/02/06 14:02:53;;;;;;;20.52;4.13;;;;;;;;;;5097409;28;20058;-70
2023/02/06 14:05:21;;;;;;;16.23;2.78;;;;;;;;;;5082559;28;20040;-70
2023/02/06 14:08:01;;;;;;;22.75;3.67;;;;;;;;;;5100555;28;20052;-69
2023/02/06 14:10:27;;;;;;;13.43;3.17;;;;;;;;;;5080414;28;20078;-70
2023/02/06 14:13:13;;;;;;;17.10;2.80;;;;;;;;;;5091656;28;20073;-69
2023/02/06 14:15:41;;;;;;;16.15;3.83;;;;;;;;;;5100593;28;20051;-69
2023/02/06 14:18:08;;;;;;;14.15;2.90;;;;;;;;;;5082253;28;20040;-69
2023/02/06 14:20:48;;;;;;;19.52;3.58;;;;;;;;;;5094274;28;20048;-69
2023/02/06 14:23:20;;;;;;;10.85;2.60;;;;;;;;;;5090621;28;20048;-69
2023/02/06 14:25:53;;;;;;;17.75;3.38;;;;;;;;;;5096361;28;20047;-69
2023/02/06 14:28:30;;;;;;;16.60;2.67;;;;;;;;;;5091147;28;20044;-69
2023/02/06 14:31:01;;;;;;;11.85;1.98;;;;;;;;;;5079148;28;20395;-69
2023/02/06 14:33:38;;;;;;;15.35;2.72;;;;;;;;;;5081704;28;20040;-68
2023/02/06 14:36:16;;;;;;;15.77;3.22;;;;;;;;;;5090508;28;20055;-69
2023/02/06 14:38:55;;;;;;;13.32;2.33;;;;;;;;;;5076044;28;20036;-69